Terminal Aerodrome Forecast
Issued by NWS

Home | Current Version | Previous Version | Text Only | Print | Product List | Glossary On
Versions: 1 2 3 4 5 6 7 8 9 10 11 12
072
FTUS44 KEWX 070100 AAA
TAFSSF
TAF AMD
KSSF 070100Z 0701/0724 02005KT P6SM FEW250
     FM071600 19010KT P6SM FEW250=

USA.gov is the U.S. government's official web portal to all federal, state and local government web resources and services.